Time;durP1;ratioP1;P1;durP2;ratioP2;P2;SDS_P1;SDS_P2;PMS_P1;PMS_P2;Temp;Humidity;BMP_temperature;BMP_pressure;BME280_temperature;BME280_humidity;BME280_pressure;Samples;Min_cycle;Max_cycle;Signal;HPM_P1;HPM_P2
2023/07/06 00:02:26;;;;;;;3.65;1.42;;;;;;;;;;5041455;28;20045;-80
2023/07/06 00:04:53;;;;;;;6.60;1.75;;;;;;;;;;5041751;28;20046;-80
2023/07/06 00:07:22;;;;;;;5.72;1.80;;;;;;;;;;5025354;28;20065;-79
2023/07/06 00:09:50;;;;;;;6.70;1.80;;;;;;;;;;5010264;28;20030;-81
2023/07/06 00:12:18;;;;;;;4.82;1.92;;;;;;;;;;5005968;28;20048;-81
2023/07/06 00:14:45;;;;;;;4.38;2.03;;;;;;;;;;5006145;28;20061;-81
2023/07/06 00:17:15;;;;;;;3.85;1.73;;;;;;;;;;4990271;28;20050;-79
2023/07/06 00:19:43;;;;;;;6.18;1.92;;;;;;;;;;4989819;28;20064;-80
2023/07/06 00:22:11;;;;;;;4.47;2.00;;;;;;;;;;4990716;28;20041;-81
2023/07/06 00:24:38;;;;;;;5.03;1.80;;;;;;;;;;5022151;28;20045;-81
2023/07/06 00:27:08;;;;;;;8.60;2.13;;;;;;;;;;4984554;28;20046;-81
2023/07/06 00:29:46;;;;;;;4.13;1.67;;;;;;;;;;5023455;28;20057;-81
2023/07/06 00:32:25;;;;;;;3.40;1.98;;;;;;;;;;4980912;28;20073;-82
2023/07/06 00:34:53;;;;;;;2.85;1.70;;;;;;;;;;4992549;28;20049;-80
2023/07/06 00:37:23;;;;;;;6.22;1.75;;;;;;;;;;5026550;28;20044;-82
2023/07/06 00:39:50;;;;;;;6.72;1.95;;;;;;;;;;5008175;28;20114;-82
2023/07/06 00:42:20;;;;;;;5.35;2.22;;;;;;;;;;4990571;28;20050;-81
2023/07/06 00:44:50;;;;;;;4.80;2.08;;;;;;;;;;5022148;28;20038;-82
2023/07/06 00:47:23;;;;;;;3.90;1.85;;;;;;;;;;5007899;28;20054;-80
2023/07/06 00:49:50;;;;;;;6.13;2.30;;;;;;;;;;5015791;28;20041;-81
2023/07/06 00:52:18;;;;;;;4.47;1.90;;;;;;;;;;5000258;28;21038;-81
2023/07/06 00:54:45;;;;;;;6.35;2.38;;;;;;;;;;5019133;28;20431;-80
2023/07/06 00:57:16;;;;;;;4.43;1.88;;;;;;;;;;5001985;28;20056;-81
2023/07/06 00:59:44;;;;;;;6.55;2.40;;;;;;;;;;5015739;28;20104;-81
2023/07/06 01:02:15;;;;;;;6.47;2.17;;;;;;;;;;5023280;28;20052;-80
2023/07/06 01:04:45;;;;;;;3.65;1.75;;;;;;;;;;5021851;28;20046;-81
2023/07/06 01:07:17;;;;;;;7.75;2.08;;;;;;;;;;5022242;28;20113;-80
2023/07/06 01:09:45;;;;;;;5.22;1.98;;;;;;;;;;5012337;28;20215;-80
2023/07/06 01:12:15;;;;;;;4.60;1.90;;;;;;;;;;5025481;28;20049;-82
2023/07/06 01:14:42;;;;;;;5.60;1.85;;;;;;;;;;5030839;28;20052;-83
2023/07/06 01:17:11;;;;;;;5.38;2.03;;;;;;;;;;4989835;28;20223;-81
2023/07/06 01:19:59;;;;;;;4.30;2.00;;;;;;;;;;5038766;28;20042;-83
2023/07/06 01:22:26;;;;;;;11.25;2.15;;;;;;;;;;5029927;28;20046;-82
2023/07/06 01:25:13;;;;;;;4.25;2.08;;;;;;;;;;5001125;28;20037;-82
2023/07/06 01:28:15;;;;;;;5.40;2.20;;;;;;;;;;5010813;28;20042;-83
2023/07/06 01:31:02;;;;;;;6.20;1.80;;;;;;;;;;4927631;29;20183;-81
2023/07/06 01:33:38;;;;;;;4.70;2.17;;;;;;;;;;5016585;28;20050;-83
2023/07/06 01:36:11;;;;;;;4.97;2.42;;;;;;;;;;5018925;28;20524;-83
2023/07/06 01:38:38;;;;;;;3.85;1.55;;;;;;;;;;5022482;28;20066;-82
2023/07/06 01:41:10;;;;;;;6.38;2.00;;;;;;;;;;5021463;28;20042;-82
2023/07/06 01:43:36;;;;;;;6.63;2.22;;;;;;;;;;5020275;28;20116;-82
2023/07/06 01:46:08;;;;;;;7.90;1.90;;;;;;;;;;5009722;28;20042;-82
2023/07/06 01:48:59;;;;;;;6.53;2.33;;;;;;;;;;4989368;28;20522;-80
2023/07/06 01:51:32;;;;;;;5.97;1.88;;;;;;;;;;4983459;28;20061;-82
2023/07/06 01:54:03;;;;;;;4.38;2.17;;;;;;;;;;5034681;28;20045;-82
2023/07/06 01:56:46;;;;;;;6.32;2.40;;;;;;;;;;4992452;28;20041;-83
2023/07/06 01:59:17;;;;;;;4.93;2.30;;;;;;;;;;5030064;28;20042;-81
2023/07/06 02:01:50;;;;;;;7.72;2.47;;;;;;;;;;5023443;28;20043;-82
2023/07/06 02:04:20;;;;;;;7.97;2.30;;;;;;;;;;5024114;28;20042;-82
2023/07/06 02:06:53;;;;;;;6.05;2.65;;;;;;;;;;5025826;28;20042;-81
2023/07/06 02:09:20;;;;;;;8.93;2.00;;;;;;;;;;5003229;28;20042;-81
2023/07/06 02:11:51;;;;;;;6.35;2.08;;;;;;;;;;5020632;28;20073;-80
2023/07/06 02:14:21;;;;;;;6.30;2.20;;;;;;;;;;5020740;28;20041;-81
2023/07/06 02:16:51;;;;;;;3.67;2.00;;;;;;;;;;5023172;28;20045;-81
2023/07/06 02:19:20;;;;;;;4.78;1.70;;;;;;;;;;5025073;28;20045;-81
2023/07/06 02:21:51;;;;;;;3.33;1.70;;;;;;;;;;5027256;28;20038;-81
2023/07/06 02:24:18;;;;;;;3.35;1.75;;;;;;;;;;5008877;28;20056;-81
2023/07/06 02:26:49;;;;;;;3.70;1.80;;;;;;;;;;5024360;28;20049;-81
2023/07/06 02:29:20;;;;;;;2.90;1.60;;;;;;;;;;5025776;28;20042;-79
2023/07/06 02:31:53;;;;;;;5.80;1.60;;;;;;;;;;5026223;28;20030;-82
2023/07/06 02:34:24;;;;;;;3.70;1.90;;;;;;;;;;5025319;28;20102;-82
2023/07/06 02:36:52;;;;;;;9.02;1.65;;;;;;;;;;5019462;28;20053;-81
2023/07/06 02:39:20;;;;;;;4.72;1.83;;;;;;;;;;5017936;28;20150;-80
2023/07/06 02:41:54;;;;;;;14.85;2.08;;;;;;;;;;5018322;28;20038;-80
2023/07/06 02:44:21;;;;;;;6.60;1.92;;;;;;;;;;5016849;28;20052;-81
2023/07/06 02:46:49;;;;;;;7.38;2.33;;;;;;;;;;5017160;28;20064;-82
2023/07/06 02:49:17;;;;;;;10.68;2.65;;;;;;;;;;5013531;28;20051;-80
2023/07/06 02:51:43;;;;;;;6.32;2.10;;;;;;;;;;5026895;28;20127;-81
2023/07/06 02:54:14;;;;;;;5.28;2.05;;;;;;;;;;5011098;28;20033;-81
2023/07/06 02:56:42;;;;;;;7.35;2.03;;;;;;;;;;5016272;28;20038;-79
2023/07/06 02:59:09;;;;;;;7.18;2.10;;;;;;;;;;5032067;28;20041;-83
2023/07/06 03:01:36;;;;;;;4.53;2.20;;;;;;;;;;5012653;28;20075;-83
2023/07/06 03:04:09;;;;;;;4.95;2.20;;;;;;;;;;5041367;28;20058;-82
2023/07/06 03:06:37;;;;;;;7.80;2.30;;;;;;;;;;5010565;28;20304;-83
2023/07/06 03:09:05;;;;;;;8.07;2.65;;;;;;;;;;5016470;28;20100;-81
2023/07/06 03:11:32;;;;;;;7.20;2.58;;;;;;;;;;5018263;28;20064;-80
2023/07/06 03:14:00;;;;;;;8.02;3.00;;;;;;;;;;5003460;28;20169;-82
2023/07/06 03:16:39;;;;;;;6.10;3.05;;;;;;;;;;5003536;28;20054;-81
2023/07/06 03:19:13;;;;;;;8.48;2.33;;;;;;;;;;5003937;28;20053;-81
2023/07/06 03:21:39;;;;;;;6.82;2.55;;;;;;;;;;5020724;28;20064;-82
2023/07/06 03:24:07;;;;;;;11.02;3.17;;;;;;;;;;5023513;28;20045;-81
2023/07/06 03:26:36;;;;;;;8.52;2.55;;;;;;;;;;5006041;28;20526;-80
2023/07/06 03:29:04;;;;;;;6.38;2.80;;;;;;;;;;5006352;28;20077;-81
2023/07/06 03:31:34;;;;;;;4.97;2.53;;;;;;;;;;5021329;28;20174;-81
2023/07/06 03:34:02;;;;;;;6.38;3.10;;;;;;;;;;5005383;28;20057;-81
2023/07/06 03:36:31;;;;;;;5.07;2.88;;;;;;;;;;5018972;28;20501;-82
2023/07/06 03:39:03;;;;;;;5.68;2.55;;;;;;;;;;5027091;28;20042;-84
2023/07/06 03:41:29;;;;;;;5.68;2.65;;;;;;;;;;5018797;28;20056;-81
2023/07/06 03:43:59;;;;;;;8.48;3.03;;;;;;;;;;5022927;28;20042;-82
2023/07/06 03:46:33;;;;;;;9.55;2.60;;;;;;;;;;5024039;28;20049;-81
2023/07/06 03:49:03;;;;;;;12.07;3.00;;;;;;;;;;5021560;28;20046;-81
2023/07/06 03:51:31;;;;;;;5.95;2.85;;;;;;;;;;5021658;28;20050;-80
2023/07/06 03:53:57;;;;;;;3.97;2.38;;;;;;;;;;5004300;28;20106;-81
2023/07/06 03:56:27;;;;;;;6.50;2.58;;;;;;;;;;5027949;28;20084;-82
2023/07/06 03:58:57;;;;;;;5.65;2.70;;;;;;;;;;5033666;28;20049;-83
2023/07/06 04:01:24;;;;;;;9.90;2.83;;;;;;;;;;5048145;28;20049;-82
2023/07/06 04:03:55;;;;;;;7.05;2.65;;;;;;;;;;5052073;28;20041;-82
2023/07/06 04:06:27;;;;;;;6.25;3.10;;;;;;;;;;5050234;28;20045;-82
2023/07/06 04:08:56;;;;;;;5.07;2.75;;;;;;;;;;5048899;28;20049;-83
2023/07/06 04:11:23;;;;;;;11.45;2.85;;;;;;;;;;5030137;28;20053;-82
2023/07/06 04:13:58;;;;;;;7.97;2.97;;;;;;;;;;5044997;28;20052;-81
2023/07/06 04:16:25;;;;;;;4.95;2.83;;;;;;;;;;5047642;28;20081;-82
2023/07/06 04:18:55;;;;;;;8.35;2.88;;;;;;;;;;5028675;28;20494;-81
2023/07/06 04:21:25;;;;;;;7.15;3.22;;;;;;;;;;5043654;28;20046;-81
2023/07/06 04:23:53;;;;;;;6.35;3.45;;;;;;;;;;5044550;28;20049;-81
2023/07/06 04:26:20;;;;;;;4.43;2.75;;;;;;;;;;5045716;28;20045;-80
2023/07/06 04:28:47;;;;;;;5.85;3.03;;;;;;;;;;5045064;28;20080;-81
2023/07/06 04:31:15;;;;;;;4.47;2.90;;;;;;;;;;5044048;28;20033;-81
2023/07/06 04:33:45;;;;;;;6.80;3.10;;;;;;;;;;5045687;28;20033;-83
2023/07/06 04:36:19;;;;;;;7.40;2.80;;;;;;;;;;5037437;28;20049;-80
2023/07/06 04:38:45;;;;;;;6.47;3.17;;;;;;;;;;5015291;28;20068;-84
2023/07/06 04:41:15;;;;;;;7.25;3.05;;;;;;;;;;5004939;28;20463;-82
2023/07/06 04:43:42;;;;;;;6.53;2.97;;;;;;;;;;5013375;28;20170;-83
2023/07/06 04:46:08;;;;;;;9.13;3.17;;;;;;;;;;5012845;28;20422;-84
2023/07/06 04:48:36;;;;;;;7.38;3.35;;;;;;;;;;5012605;28;20060;-83
2023/07/06 04:51:03;;;;;;;6.72;3.22;;;;;;;;;;5026632;28;20092;-84
2023/07/06 04:53:32;;;;;;;8.70;3.15;;;;;;;;;;5007369;28;20053;-83
2023/07/06 04:56:00;;;;;;;5.68;2.75;;;;;;;;;;5022518;28;20048;-83
2023/07/06 04:58:28;;;;;;;9.50;2.95;;;;;;;;;;5000896;28;20701;-83
2023/07/06 05:00:56;;;;;;;8.70;3.00;;;;;;;;;;5016915;28;20038;-83
2023/07/06 05:03:23;;;;;;;9.25;3.20;;;;;;;;;;5016073;28;20049;-82
2023/07/06 05:05:50;;;;;;;6.90;3.17;;;;;;;;;;5040038;28;20450;-85
2023/07/06 05:08:19;;;;;;;7.15;2.90;;;;;;;;;;5017255;28;20051;-83
2023/07/06 05:10:50;;;;;;;6.40;2.72;;;;;;;;;;5014026;28;20037;-83
2023/07/06 05:13:19;;;;;;;8.65;2.85;;;;;;;;;;5024439;28;20068;-81
2023/07/06 05:15:46;;;;;;;25.83;2.88;;;;;;;;;;5020351;28;20054;-84
2023/07/06 05:18:12;;;;;;;6.50;2.92;;;;;;;;;;5000933;28;20057;-81
2023/07/06 05:20:40;;;;;;;4.25;2.60;;;;;;;;;;5023018;28;20069;-81
2023/07/06 05:23:08;;;;;;;4.85;2.50;;;;;;;;;;5023164;28;20049;-79
2023/07/06 05:25:38;;;;;;;8.60;2.88;;;;;;;;;;5006606;28;20112;-82
2023/07/06 05:28:04;;;;;;;9.00;3.13;;;;;;;;;;5022756;28;20096;-81
2023/07/06 05:30:31;;;;;;;8.50;2.75;;;;;;;;;;5006750;28;20058;-81
2023/07/06 05:33:02;;;;;;;5.30;2.60;;;;;;;;;;5017471;28;20046;-81
2023/07/06 05:35:45;;;;;;;6.35;2.30;;;;;;;;;;5019364;28;20165;-81
2023/07/06 05:38:15;;;;;;;6.32;2.28;;;;;;;;;;5019484;28;20510;-80
2023/07/06 05:40:43;;;;;;;5.80;2.15;;;;;;;;;;5023160;28;20085;-80
2023/07/06 05:43:10;;;;;;;9.68;2.28;;;;;;;;;;5021923;28;20045;-81
2023/07/06 05:45:37;;;;;;;5.47;2.10;;;;;;;;;;5039248;28;20117;-81
2023/07/06 05:48:04;;;;;;;5.72;1.90;;;;;;;;;;5025821;28;20503;-80
2023/07/06 05:50:30;;;;;;;7.30;2.05;;;;;;;;;;5023348;28;20087;-81
2023/07/06 05:52:57;;;;;;;7.10;2.10;;;;;;;;;;5024669;28;20045;-81
2023/07/06 05:55:24;;;;;;;3.80;1.80;;;;;;;;;;5024203;28;20485;-79
2023/07/06 05:57:51;;;;;;;3.08;1.90;;;;;;;;;;5040677;28;20058;-80
2023/07/06 06:00:18;;;;;;;9.52;1.80;;;;;;;;;;5026907;28;20042;-79
2023/07/06 06:02:45;;;;;;;5.20;1.40;;;;;;;;;;4998997;28;20052;-80
2023/07/06 06:05:15;;;;;;;5.75;1.70;;;;;;;;;;5018825;28;20126;-79
2023/07/06 06:07:45;;;;;;;4.55;1.60;;;;;;;;;;5022877;28;20045;-80
2023/07/06 06:10:12;;;;;;;5.15;1.50;;;;;;;;;;5024598;28;20060;-80
2023/07/06 06:12:40;;;;;;;6.47;1.40;;;;;;;;;;5043245;28;20071;-80
2023/07/06 06:15:10;;;;;;;3.22;1.48;;;;;;;;;;5044455;28;20106;-80
2023/07/06 06:17:37;;;;;;;5.72;1.73;;;;;;;;;;5025436;28;20038;-81
2023/07/06 06:20:06;;;;;;;5.40;1.70;;;;;;;;;;5026070;28;20132;-81
2023/07/06 06:22:33;;;;;;;5.15;1.50;;;;;;;;;;5048576;28;20050;-82
2023/07/06 06:25:01;;;;;;;5.20;1.45;;;;;;;;;;5016222;28;20042;-78
2023/07/06 06:27:28;;;;;;;3.55;1.60;;;;;;;;;;5049781;28;20033;-80
2023/07/06 06:29:55;;;;;;;5.43;2.20;;;;;;;;;;5021158;28;20033;-80
2023/07/06 06:32:22;;;;;;;4.65;1.55;;;;;;;;;;5033704;28;20043;-79
2023/07/06 06:34:48;;;;;;;4.38;1.73;;;;;;;;;;5024977;28;20105;-80
2023/07/06 06:37:16;;;;;;;5.45;1.67;;;;;;;;;;5026876;28;20037;-79
2023/07/06 06:39:43;;;;;;;3.85;1.50;;;;;;;;;;5011690;28;20041;-81
2023/07/06 06:42:13;;;;;;;3.35;1.50;;;;;;;;;;5028634;28;20053;-80
2023/07/06 06:44:43;;;;;;;3.92;1.38;;;;;;;;;;5021954;28;20042;-81
2023/07/06 06:47:09;;;;;;;4.30;1.40;;;;;;;;;;5019720;28;20038;-80
2023/07/06 06:49:38;;;;;;;3.38;1.20;;;;;;;;;;5047970;28;20108;-80
2023/07/06 06:52:04;;;;;;;6.50;1.55;;;;;;;;;;5029333;28;20793;-80
2023/07/06 06:54:32;;;;;;;4.45;1.63;;;;;;;;;;5047281;28;20109;-80
2023/07/06 06:56:58;;;;;;;2.75;1.42;;;;;;;;;;5022429;28;20065;-80
2023/07/06 06:59:25;;;;;;;3.30;1.48;;;;;;;;;;5009532;28;20072;-80
2023/07/06 07:01:53;;;;;;;4.22;1.58;;;;;;;;;;5009592;28;20042;-80
2023/07/06 07:04:21;;;;;;;2.95;1.08;;;;;;;;;;5009948;28;20124;-81
2023/07/06 07:06:47;;;;;;;4.70;1.40;;;;;;;;;;5010382;28;20046;-80
2023/07/06 07:09:14;;;;;;;3.55;1.30;;;;;;;;;;5009184;28;20050;-81
2023/07/06 07:11:40;;;;;;;4.03;1.48;;;;;;;;;;5008556;28;20042;-80
2023/07/06 07:14:08;;;;;;;6.40;1.60;;;;;;;;;;5013629;28;20050;-81
2023/07/06 07:16:50;;;;;;;4.45;1.70;;;;;;;;;;5011612;28;20060;-79
2023/07/06 07:19:18;;;;;;;6.95;1.60;;;;;;;;;;5029574;28;20062;-79
2023/07/06 07:21:44;;;;;;;5.18;1.73;;;;;;;;;;5011544;28;20041;-80
2023/07/06 07:24:11;;;;;;;4.32;1.30;;;;;;;;;;5011224;28;20108;-80
2023/07/06 07:26:38;;;;;;;3.10;1.35;;;;;;;;;;5029600;28;20041;-80
2023/07/06 07:29:06;;;;;;;4.85;1.27;;;;;;;;;;5006009;28;20053;-80
2023/07/06 07:31:32;;;;;;;5.20;1.45;;;;;;;;;;5001743;28;20558;-78
2023/07/06 07:33:59;;;;;;;4.65;1.50;;;;;;;;;;5022708;28;20054;-80
2023/07/06 07:36:26;;;;;;;5.05;1.80;;;;;;;;;;5023129;28;20050;-80
2023/07/06 07:38:56;;;;;;;3.70;1.48;;;;;;;;;;5008328;28;20057;-80
2023/07/06 07:41:24;;;;;;;4.78;1.80;;;;;;;;;;5024917;28;20052;-78
2023/07/06 07:43:50;;;;;;;4.32;1.50;;;;;;;;;;5033636;28;20050;-80
2023/07/06 07:46:19;;;;;;;3.30;1.15;;;;;;;;;;5024946;28;20052;-80
2023/07/06 07:48:47;;;;;;;3.20;1.42;;;;;;;;;;5025188;28;20308;-78
2023/07/06 07:51:15;;;;;;;5.10;1.35;;;;;;;;;;5024144;28;20046;-79
2023/07/06 07:53:44;;;;;;;7.00;1.55;;;;;;;;;;5025884;28;20118;-79
2023/07/06 07:56:12;;;;;;;4.00;1.33;;;;;;;;;;5011114;28;20045;-81
2023/07/06 07:58:40;;;;;;;6.22;1.75;;;;;;;;;;5027725;28;20026;-81
2023/07/06 08:01:09;;;;;;;4.47;1.50;;;;;;;;;;5026957;28;20132;-80
2023/07/06 08:03:36;;;;;;;7.93;1.92;;;;;;;;;;5026669;28;20082;-80
2023/07/06 08:06:05;;;;;;;4.35;1.50;;;;;;;;;;5026158;28;20113;-81
2023/07/06 08:08:33;;;;;;;4.45;1.35;;;;;;;;;;5009659;28;20045;-79
2023/07/06 08:11:03;;;;;;;5.60;1.50;;;;;;;;;;5013528;28;20049;-80
2023/07/06 08:13:31;;;;;;;6.38;1.30;;;;;;;;;;5030693;28;20050;-79
2023/07/06 08:15:58;;;;;;;3.92;1.38;;;;;;;;;;5013598;28;20062;-81
2023/07/06 08:18:25;;;;;;;3.75;1.38;;;;;;;;;;5015980;28;20057;-81
2023/07/06 08:20:53;;;;;;;5.47;1.42;;;;;;;;;;5019555;28;20045;-79
2023/07/06 08:23:46;;;;;;;3.25;1.45;;;;;;;;;;5022937;28;20096;-81
2023/07/06 08:26:13;;;;;;;4.03;1.30;;;;;;;;;;5021508;28;20042;-79
2023/07/06 08:28:41;;;;;;;4.03;1.63;;;;;;;;;;5016077;28;20402;-80
2023/07/06 08:31:12;;;;;;;5.00;1.70;;;;;;;;;;5018992;28;20109;-80
2023/07/06 08:33:39;;;;;;;4.88;1.40;;;;;;;;;;5018690;28;20045;-81
2023/07/06 08:36:07;;;;;;;3.70;1.60;;;;;;;;;;5003730;28;20050;-80
2023/07/06 08:38:34;;;;;;;4.65;1.52;;;;;;;;;;5023872;28;20046;-82
2023/07/06 08:41:03;;;;;;;5.03;1.70;;;;;;;;;;5020328;28;20061;-82
2023/07/06 08:43:31;;;;;;;7.05;1.55;;;;;;;;;;5022403;28;20057;-80
2023/07/06 08:46:02;;;;;;;3.20;1.42;;;;;;;;;;5011390;28;20042;-83
2023/07/06 08:48:31;;;;;;;5.32;1.58;;;;;;;;;;5047906;28;20579;-81
2023/07/06 08:51:10;;;;;;;4.10;1.40;;;;;;;;;;5029816;28;20068;-81
2023/07/06 08:53:38;;;;;;;5.75;1.60;;;;;;;;;;5045427;28;20054;-81
2023/07/06 08:56:09;;;;;;;4.05;1.63;;;;;;;;;;5047502;28;20045;-81
2023/07/06 08:58:38;;;;;;;4.90;1.73;;;;;;;;;;5047146;28;20051;-80
2023/07/06 09:01:10;;;;;;;3.42;1.40;;;;;;;;;;5030269;28;20056;-81
2023/07/06 09:03:41;;;;;;;4.57;1.52;;;;;;;;;;5010841;28;20067;-81
2023/07/06 09:06:11;;;;;;;3.97;1.52;;;;;;;;;;5011421;28;20033;-80
2023/07/06 09:08:39;;;;;;;4.75;1.60;;;;;;;;;;5008405;28;20142;-81
2023/07/06 09:11:07;;;;;;;5.13;1.88;;;;;;;;;;5009942;28;20042;-81
2023/07/06 09:13:49;;;;;;;3.33;1.30;;;;;;;;;;5027018;28;20049;-81
2023/07/06 09:16:19;;;;;;;3.65;1.55;;;;;;;;;;5009020;28;20056;-81
2023/07/06 09:18:47;;;;;;;4.32;1.35;;;;;;;;;;5009396;28;20088;-81
2023/07/06 09:21:16;;;;;;;3.03;1.40;;;;;;;;;;5008163;28;20065;-84
2023/07/06 09:23:45;;;;;;;5.40;1.83;;;;;;;;;;5004931;28;20102;-80
2023/07/06 09:26:15;;;;;;;5.07;1.45;;;;;;;;;;5017188;28;20049;-80
2023/07/06 09:29:25;;;;;;;5.85;1.92;;;;;;;;;;4989296;28;20080;-79
2023/07/06 09:32:07;;;;;;;3.67;1.50;;;;;;;;;;5002260;28;20081;-80
2023/07/06 09:34:34;;;;;;;4.55;1.80;;;;;;;;;;5023472;28;20050;-81
2023/07/06 09:37:02;;;;;;;5.50;2.13;;;;;;;;;;4989595;28;20057;-80
2023/07/06 09:39:29;;;;;;;3.45;1.40;;;;;;;;;;5006706;28;20073;-81
2023/07/06 09:41:57;;;;;;;6.10;1.60;;;;;;;;;;4991034;28;20128;-82
2023/07/06 09:44:26;;;;;;;3.85;1.55;;;;;;;;;;5024398;28;20101;-81
2023/07/06 09:46:55;;;;;;;3.55;1.27;;;;;;;;;;5023588;28;20045;-80
2023/07/06 09:49:26;;;;;;;4.10;1.40;;;;;;;;;;5007543;28;20069;-80
2023/07/06 09:51:59;;;;;;;3.83;1.40;;;;;;;;;;5027600;28;20056;-80
2023/07/06 09:54:32;;;;;;;3.20;1.50;;;;;;;;;;5031640;28;20065;-81
2023/07/06 09:57:00;;;;;;;4.18;1.73;;;;;;;;;;5038762;28;20098;-82
2023/07/06 09:59:27;;;;;;;9.32;2.13;;;;;;;;;;5020535;28;20387;-80
2023/07/06 10:01:53;;;;;;;5.35;1.55;;;;;;;;;;5054376;28;20050;-81
2023/07/06 10:04:29;;;;;;;3.25;1.55;;;;;;;;;;5034967;28;20115;-81
2023/07/06 10:07:05;;;;;;;3.40;1.30;;;;;;;;;;5051582;28;20046;-80
2023/07/06 10:09:34;;;;;;;4.38;1.60;;;;;;;;;;5033115;28;20312;-80
2023/07/06 10:12:08;;;;;;;6.68;1.73;;;;;;;;;;5052844;28;20053;-79
2023/07/06 10:14:48;;;;;;;6.88;1.67;;;;;;;;;;5035348;28;20056;-79
2023/07/06 10:17:18;;;;;;;2.85;1.50;;;;;;;;;;5051507;28;20041;-82
2023/07/06 10:19:57;;;;;;;4.10;1.60;;;;;;;;;;5024884;28;20053;-80
2023/07/06 10:22:24;;;;;;;3.38;1.45;;;;;;;;;;5005717;28;20758;-80
2023/07/06 10:25:08;;;;;;;2.40;1.33;;;;;;;;;;5039582;28;20469;-79
2023/07/06 10:27:37;;;;;;;4.32;1.60;;;;;;;;;;5025839;28;20073;-81
2023/07/06 10:30:08;;;;;;;3.03;1.38;;;;;;;;;;5028823;28;20196;-79
2023/07/06 10:32:38;;;;;;;6.68;1.45;;;;;;;;;;5046134;28;20060;-80
2023/07/06 10:35:19;;;;;;;3.58;1.45;;;;;;;;;;5031765;28;20065;-81
2023/07/06 10:37:48;;;;;;;3.25;1.50;;;;;;;;;;5029693;28;20069;-81
2023/07/06 10:40:20;;;;;;;4.97;1.40;;;;;;;;;;5048593;28;20108;-80
2023/07/06 10:42:51;;;;;;;2.40;1.20;;;;;;;;;;5033155;28;20087;-82
2023/07/06 10:45:23;;;;;;;5.43;1.52;;;;;;;;;;5025151;28;20115;-80
2023/07/06 10:47:50;;;;;;;4.05;1.67;;;;;;;;;;5031805;28;20080;-80
2023/07/06 10:50:19;;;;;;;3.65;1.60;;;;;;;;;;5031456;28;20132;-81
2023/07/06 10:53:02;;;;;;;3.85;1.40;;;;;;;;;;5033314;28;20045;-82
2023/07/06 10:55:36;;;;;;;3.15;1.60;;;;;;;;;;5033575;28;20055;-81
2023/07/06 10:58:23;;;;;;;4.68;1.50;;;;;;;;;;5050192;28;20059;-79
2023/07/06 11:00:50;;;;;;;5.60;1.48;;;;;;;;;;5016981;28;20069;-80
2023/07/06 11:03:20;;;;;;;5.13;1.20;;;;;;;;;;5036504;28;20045;-79
2023/07/06 11:05:54;;;;;;;3.25;1.48;;;;;;;;;;5034799;28;20460;-80
2023/07/06 11:08:40;;;;;;;4.20;1.50;;;;;;;;;;5015542;28;20133;-82
2023/07/06 11:11:17;;;;;;;4.55;1.30;;;;;;;;;;5014252;28;20045;-80
2023/07/06 11:13:51;;;;;;;2.80;1.48;;;;;;;;;;5040036;28;20076;-79
2023/07/06 11:16:22;;;;;;;4.53;1.33;;;;;;;;;;5021927;28;20106;-80
2023/07/06 11:18:51;;;;;;;3.85;1.40;;;;;;;;;;5043335;28;20249;-81
2023/07/06 11:21:25;;;;;;;4.15;1.40;;;;;;;;;;5026997;28;20048;-78
2023/07/06 11:24:06;;;;;;;2.70;1.23;;;;;;;;;;5046423;28;20145;-80
2023/07/06 11:26:40;;;;;;;4.07;1.30;;;;;;;;;;5028606;28;20072;-80
2023/07/06 11:29:07;;;;;;;2.55;1.38;;;;;;;;;;5043028;28;20116;-80
2023/07/06 11:31:34;;;;;;;5.93;1.55;;;;;;;;;;5051311;28;20034;-80
2023/07/06 11:34:08;;;;;;;2.83;1.40;;;;;;;;;;5037303;28;20045;-81
2023/07/06 11:36:55;;;;;;;4.05;1.65;;;;;;;;;;5033185;28;20049;-81
2023/07/06 11:39:40;;;;;;;4.00;1.50;;;;;;;;;;5016105;28;20109;-82
2023/07/06 11:42:27;;;;;;;3.58;1.50;;;;;;;;;;5030154;28;20049;-79
2023/07/06 11:44:54;;;;;;;4.00;1.58;;;;;;;;;;5007432;28;20046;-82
2023/07/06 11:47:43;;;;;;;4.78;1.67;;;;;;;;;;5025243;28;20471;-80
2023/07/06 11:50:14;;;;;;;3.22;1.60;;;;;;;;;;5024677;28;20077;-78
2023/07/06 11:52:44;;;;;;;3.55;1.60;;;;;;;;;;5024337;28;20042;-81
2023/07/06 11:55:31;;;;;;;2.65;1.50;;;;;;;;;;5005905;28;20053;-79
2023/07/06 11:58:05;;;;;;;2.13;1.40;;;;;;;;;;5021269;28;20052;-79
2023/07/06 12:00:47;;;;;;;;;;;;;;;;;;;;;
2023/07/06 12:03:01;;;;;;;2.60;1.40;;;;;;;;;;5028768;28;20045;-79
2023/07/06 12:05:33;;;;;;;2.53;1.40;;;;;;;;;;5027066;28;20054;-81
2023/07/06 12:08:02;;;;;;;3.88;1.52;;;;;;;;;;5023658;28;20037;-79
2023/07/06 12:10:30;;;;;;;6.63;1.70;;;;;;;;;;5020760;28;20515;-79
2023/07/06 12:12:57;;;;;;;5.90;1.40;;;;;;;;;;5005770;28;20042;-80
2023/07/06 12:15:24;;;;;;;4.10;1.20;;;;;;;;;;5023164;28;20060;-80
2023/07/06 12:17:55;;;;;;;2.58;1.45;;;;;;;;;;5024991;28;20533;-81
2023/07/06 12:20:26;;;;;;;2.55;1.45;;;;;;;;;;5029149;28;20137;-82
2023/07/06 12:22:57;;;;;;;4.00;1.65;;;;;;;;;;5029737;28;20042;-83
2023/07/06 12:25:24;;;;;;;2.75;1.30;;;;;;;;;;5009283;28;20058;-83
2023/07/06 12:27:58;;;;;;;3.42;1.58;;;;;;;;;;5009310;28;20050;-81
2023/07/06 12:30:33;;;;;;;2.92;1.40;;;;;;;;;;5021090;28;20054;-81
2023/07/06 12:33:04;;;;;;;3.28;1.60;;;;;;;;;;5005931;28;20127;-81
2023/07/06 12:35:33;;;;;;;5.82;1.33;;;;;;;;;;5025835;28;20110;-80
2023/07/06 12:38:06;;;;;;;2.60;1.45;;;;;;;;;;5029489;28;20215;-82
2023/07/06 12:40:34;;;;;;;3.78;1.52;;;;;;;;;;5031647;28;20094;-80
2023/07/06 12:43:01;;;;;;;3.50;1.55;;;;;;;;;;5032771;28;20180;-81
2023/07/06 12:45:30;;;;;;;4.53;1.30;;;;;;;;;;5030964;28;20050;-81
2023/07/06 12:47:58;;;;;;;3.92;1.60;;;;;;;;;;5030459;28;20072;-81
2023/07/06 12:50:29;;;;;;;2.90;1.25;;;;;;;;;;5027697;28;20060;-81
2023/07/06 12:53:08;;;;;;;3.75;1.60;;;;;;;;;;5031419;28;20034;-81
2023/07/06 12:55:36;;;;;;;3.00;1.42;;;;;;;;;;5025146;28;20687;-80
2023/07/06 12:58:15;;;;;;;2.45;1.25;;;;;;;;;;5003951;28;21389;-73
2023/07/06 13:00:45;;;;;;;5.95;1.15;;;;;;;;;;5025881;28;20568;-74
2023/07/06 13:03:12;;;;;;;3.53;1.33;;;;;;;;;;5009767;28;20099;-73
2023/07/06 13:05:40;;;;;;;4.97;1.48;;;;;;;;;;5003051;28;20042;-75
2023/07/06 13:08:13;;;;;;;5.50;1.45;;;;;;;;;;5028881;28;20033;-75
2023/07/06 13:10:43;;;;;;;5.35;1.63;;;;;;;;;;5030514;28;20045;-74
2023/07/06 13:13:18;;;;;;;2.95;1.42;;;;;;;;;;5026043;28;20042;-74
2023/07/06 13:15:46;;;;;;;5.97;1.48;;;;;;;;;;5002867;28;20068;-74
2023/07/06 13:18:14;;;;;;;3.60;1.77;;;;;;;;;;4995449;28;20114;-74
2023/07/06 13:20:41;;;;;;;3.70;1.50;;;;;;;;;;4993276;28;20059;-74
2023/07/06 13:23:09;;;;;;;2.40;1.48;;;;;;;;;;5027739;28;20537;-74
2023/07/06 13:25:40;;;;;;;4.10;1.60;;;;;;;;;;5007829;28;20050;-75
2023/07/06 13:28:11;;;;;;;5.05;1.77;;;;;;;;;;5009619;28;20397;-73
2023/07/06 13:30:50;;;;;;;4.43;1.58;;;;;;;;;;5023891;28;20049;-74
2023/07/06 13:33:19;;;;;;;2.88;1.63;;;;;;;;;;5001613;28;20559;-73
2023/07/06 13:35:46;;;;;;;3.15;1.40;;;;;;;;;;5035649;28;20135;-73
2023/07/06 13:38:13;;;;;;;3.25;1.50;;;;;;;;;;5014589;28;20099;-74
2023/07/06 13:40:41;;;;;;;2.47;1.45;;;;;;;;;;4997891;28;20498;-74
2023/07/06 13:43:13;;;;;;;4.10;1.52;;;;;;;;;;5004949;28;20044;-74
2023/07/06 13:45:41;;;;;;;4.90;1.48;;;;;;;;;;5020585;28;20046;-72
2023/07/06 13:48:07;;;;;;;3.33;1.52;;;;;;;;;;5007821;28;20490;-72
2023/07/06 13:50:34;;;;;;;3.95;1.30;;;;;;;;;;5014925;28;20177;-72
2023/07/06 13:53:02;;;;;;;2.53;1.40;;;;;;;;;;5025840;28;20045;-79
2023/07/06 13:55:47;;;;;;;3.83;1.70;;;;;;;;;;5056299;28;20118;-79
2023/07/06 13:58:14;;;;;;;3.10;1.37;;;;;;;;;;5051138;28;20049;-78
2023/07/06 14:00:42;;;;;;;5.03;1.67;;;;;;;;;;5036292;28;20280;-81
2023/07/06 14:03:34;;;;;;;4.95;1.52;;;;;;;;;;5037834;28;20123;-80
2023/07/06 14:06:03;;;;;;;2.33;1.48;;;;;;;;;;5054348;28;20049;-80
2023/07/06 14:08:31;;;;;;;2.35;1.35;;;;;;;;;;5015836;28;20050;-81
2023/07/06 14:11:00;;;;;;;3.10;1.45;;;;;;;;;;5005085;28;20057;-79
2023/07/06 14:13:27;;;;;;;4.40;1.58;;;;;;;;;;5012093;28;20125;-79
2023/07/06 14:15:54;;;;;;;2.78;1.40;;;;;;;;;;5017867;28;20073;-79
2023/07/06 14:18:23;;;;;;;3.22;1.50;;;;;;;;;;5031804;28;20069;-79
2023/07/06 14:20:51;;;;;;;3.50;1.52;;;;;;;;;;5029032;28;20058;-80
2023/07/06 14:23:18;;;;;;;2.10;1.17;;;;;;;;;;5013808;28;20049;-82
2023/07/06 14:26:18;;;;;;;4.45;1.50;;;;;;;;;;5012597;28;20053;-81
2023/07/06 14:28:49;;;;;;;4.10;1.70;;;;;;;;;;5011466;28;20071;-82
2023/07/06 14:31:17;;;;;;;3.35;1.40;;;;;;;;;;5012307;28;20553;-82
2023/07/06 14:33:45;;;;;;;3.72;1.67;;;;;;;;;;5000281;28;20049;-81
2023/07/06 14:36:12;;;;;;;2.90;1.50;;;;;;;;;;5001921;28;20084;-80
2023/07/06 14:38:39;;;;;;;1.95;1.30;;;;;;;;;;5037211;28;20587;-80
2023/07/06 14:41:07;;;;;;;5.40;1.63;;;;;;;;;;5018816;28;20506;-80
2023/07/06 14:43:36;;;;;;;2.15;1.20;;;;;;;;;;5007814;28;20050;-81
2023/07/06 14:46:11;;;;;;;5.63;1.30;;;;;;;;;;4997385;28;20080;-81
2023/07/06 14:49:03;;;;;;;2.85;1.80;;;;;;;;;;4998245;28;20050;-82
2023/07/06 14:51:32;;;;;;;3.50;1.55;;;;;;;;;;5006913;28;20053;-81
2023/07/06 14:54:01;;;;;;;3.60;1.58;;;;;;;;;;5014921;28;20600;-80
2023/07/06 14:56:39;;;;;;;2.30;1.55;;;;;;;;;;5005263;28;20130;-80
2023/07/06 14:59:28;;;;;;;3.35;1.70;;;;;;;;;;4990617;28;20048;-81
2023/07/06 15:01:56;;;;;;;4.20;1.60;;;;;;;;;;4994576;28;20064;-81
2023/07/06 15:04:25;;;;;;;2.20;1.30;;;;;;;;;;5014461;28;20046;-80